Pocomoke, Maryland
Current Conditions -  °F | °C
As of 12:54 AM on Sunday 26 Oct 2014 (Local Time) from KWAL Reporting Station
Clear Clear  
Wind Chill: 61°   Ceiling: Unl
Heat Index: 61°   Visibility: 10mi
Dew Point: 47°   Wind: 9mph
Humidity: 60%   Direction: 270°W
Pressure: 29.72"   Gusts: NA
Location:  38.0556°N, 75.5253°W
Report Text: KWAL 260454Z 27008KT 10SM CLR 16/08 A2972 RMK AO2 SLP061 T01610083 402110083
Loading
Personal Weather Stations






























Interactive Weather Map
Tropical Storm Tracking
New forecast layout! Learn more

10-Day Weather Forecast

Advertisements
Track Severe Weather on mobile